createdAt,value
2018-08-30T00:00:14.394Z,8.77
2018-08-30T00:01:50.374Z,8.13
2018-08-30T00:03:25.741Z,9.50
2018-08-30T00:05:01.155Z,9.03
2018-08-30T00:06:36.578Z,7.67
2018-08-30T00:08:13.292Z,8.47
2018-08-30T00:09:49.242Z,8.87
2018-08-30T00:11:24.648Z,8.23
2018-08-30T00:13:00.043Z,8.87
2018-08-30T00:14:35.472Z,8.47
2018-08-30T00:16:11.121Z,7.47
2018-08-30T00:17:46.499Z,9.23
2018-08-30T00:19:21.980Z,8.80
2018-08-30T00:20:57.409Z,9.50
2018-08-30T00:22:33.439Z,9.73
2018-08-30T00:24:09.383Z,9.23
2018-08-30T00:25:45.070Z,9.20
2018-08-30T00:27:20.477Z,9.90
2018-08-30T00:28:55.927Z,9.53
2018-08-30T00:30:31.541Z,8.87
2018-08-30T00:32:07.179Z,8.70
2018-08-30T00:33:42.586Z,9.67
2018-08-30T00:35:18.480Z,10.00
2018-08-30T00:36:53.917Z,9.50
2018-08-30T00:38:29.309Z,12.43
2018-08-30T00:40:04.857Z,9.67
2018-08-30T00:41:40.252Z,9.10
2018-08-30T00:43:15.682Z,9.37
2018-08-30T00:44:51.113Z,9.83
2018-08-30T00:46:27.596Z,9.57
2018-08-30T00:48:02.978Z,9.73
2018-08-30T00:49:38.385Z,10.70
2018-08-30T00:51:14.169Z,12.13
2018-08-30T00:52:49.736Z,12.37
2018-08-30T00:54:25.137Z,9.23
2018-08-30T00:56:00.555Z,10.20
2018-08-30T00:57:36.031Z,11.10
2018-08-30T00:59:11.435Z,10.30
2018-08-30T01:00:46.885Z,10.73
2018-08-30T01:02:22.826Z,11.33
2018-08-30T01:03:58.254Z,10.57
2018-08-30T01:05:33.628Z,10.73
2018-08-30T01:07:09.073Z,10.20
2018-08-30T01:08:44.454Z,9.73
2018-08-30T01:10:19.870Z,9.57
2018-08-30T01:11:56.125Z,11.23
2018-08-30T01:13:31.572Z,10.47
2018-08-30T01:15:07.201Z,9.73
2018-08-30T01:16:42.607Z,11.20
2018-08-30T01:18:18.361Z,10.17
2018-08-30T01:19:53.759Z,10.93
2018-08-30T01:21:29.163Z,9.80
2018-08-30T01:23:04.608Z,10.40
2018-08-30T01:24:40.023Z,9.73
2018-08-30T01:26:15.410Z,9.93
2018-08-30T01:27:50.869Z,9.73
2018-08-30T01:29:26.512Z,10.90
2018-08-30T01:31:02.065Z,10.70
2018-08-30T01:32:37.595Z,10.67
2018-08-30T01:34:13.674Z,10.47
2018-08-30T01:35:48.189Z,10.67
2018-08-30T01:37:23.246Z,11.03
2018-08-30T01:38:58.671Z,10.33
2018-08-30T01:40:34.108Z,10.33
2018-08-30T01:42:09.726Z,10.37
2018-08-30T01:43:45.265Z,11.20
2018-08-30T01:45:20.696Z,10.67
2018-08-30T01:46:57.188Z,11.40
2018-08-30T01:48:32.743Z,10.37
2018-08-30T01:50:08.140Z,11.47
2018-08-30T01:51:43.591Z,10.60
2018-08-30T01:53:19.029Z,11.27
2018-08-30T01:54:54.458Z,11.93
2018-08-30T01:56:29.887Z,11.00
2018-08-30T01:58:05.694Z,10.30
2018-08-30T01:59:41.724Z,11.17
2018-08-30T02:01:17.192Z,11.50
2018-08-30T02:02:52.593Z,10.47
2018-08-30T02:04:28.035Z,10.13
2018-08-30T02:06:03.466Z,10.03
2018-08-30T02:07:38.964Z,10.07
2018-08-30T02:09:14.412Z,10.30
2018-08-30T02:10:49.774Z,11.60
2018-08-30T02:12:25.232Z,11.07
2018-08-30T02:14:00.630Z,11.13
2018-08-30T02:15:36.382Z,11.93
2018-08-30T02:17:11.845Z,11.67
2018-08-30T02:18:47.583Z,11.23
2018-08-30T02:20:23.216Z,12.43
2018-08-30T02:21:59.078Z,11.60
2018-08-30T02:23:35.371Z,12.17
2018-08-30T02:25:10.821Z,14.37
2018-08-30T02:26:46.264Z,13.00
2018-08-30T02:28:21.649Z,13.23
2018-08-30T02:29:57.097Z,12.80
2018-08-30T02:31:32.547Z,12.67
2018-08-30T02:33:08.746Z,12.47
2018-08-30T02:34:44.168Z,12.00
2018-08-30T02:36:19.598Z,12.97
2018-08-30T02:37:55.035Z,14.33
2018-08-30T02:39:30.511Z,13.27
2018-08-30T02:41:06.337Z,12.87
2018-08-30T02:42:41.729Z,12.63
2018-08-30T02:44:17.775Z,12.93
2018-08-30T02:45:53.222Z,12.87
2018-08-30T02:47:29.806Z,13.57
2018-08-30T02:49:05.281Z,12.70
2018-08-30T02:50:40.677Z,11.40
2018-08-30T02:52:16.142Z,12.87
2018-08-30T02:53:51.576Z,12.13
2018-08-30T02:55:27.464Z,12.30
2018-08-30T02:57:02.900Z,12.23
2018-08-30T02:58:38.344Z,12.00
2018-08-30T03:00:14.004Z,12.23
2018-08-30T03:01:49.531Z,11.03
2018-08-30T03:03:24.962Z,10.83
2018-08-30T03:05:00.377Z,12.07
2018-08-30T03:06:35.897Z,11.67
2018-08-30T03:08:11.632Z,11.13
2018-08-30T03:09:47.081Z,10.80
2018-08-30T03:11:22.480Z,11.30
2018-08-30T03:12:57.906Z,11.27
2018-08-30T03:14:33.860Z,11.60
2018-08-30T03:16:09.558Z,11.93
2018-08-30T03:17:45.041Z,11.83
2018-08-30T03:19:20.458Z,11.90
2018-08-30T03:20:56.485Z,12.03
2018-08-30T03:22:31.904Z,10.63
2018-08-30T03:24:07.345Z,11.27
2018-08-30T03:25:42.760Z,11.50
2018-08-30T03:27:18.207Z,11.30
2018-08-30T03:28:53.640Z,10.47
2018-08-30T03:30:29.049Z,10.90
2018-08-30T03:32:04.459Z,10.87
2018-08-30T03:33:39.908Z,10.93
2018-08-30T03:35:16.005Z,10.57
2018-08-30T03:36:51.997Z,11.13
2018-08-30T03:38:27.451Z,11.07
2018-08-30T03:40:02.904Z,10.97
2018-08-30T03:41:38.395Z,10.73
2018-08-30T03:43:13.938Z,11.63
2018-08-30T03:44:49.408Z,11.43
2018-08-30T03:46:24.905Z,11.30
2018-08-30T03:48:00.545Z,10.37
2018-08-30T03:49:35.976Z,11.07
2018-08-30T03:51:11.419Z,10.53
2018-08-30T03:52:46.873Z,10.40
2018-08-30T03:54:22.440Z,10.50
2018-08-30T03:56:01.951Z,9.73
2018-08-30T03:57:37.950Z,10.30
2018-08-30T03:59:13.403Z,11.33
2018-08-30T04:00:48.940Z,10.60
2018-08-30T04:02:24.495Z,10.30
2018-08-30T04:04:00.696Z,10.53
2018-08-30T04:05:36.145Z,10.50
2018-08-30T04:07:11.568Z,10.67
2018-08-30T04:08:47.060Z,11.53
2018-08-30T04:10:22.508Z,10.90
2018-08-30T04:11:58.489Z,11.87
2018-08-30T04:13:34.423Z,11.30
2018-08-30T04:15:10.140Z,11.70
2018-08-30T04:16:45.629Z,10.57
2018-08-30T04:18:21.008Z,11.30
2018-08-30T04:19:56.488Z,11.40
2018-08-30T04:21:31.927Z,12.07
2018-08-30T04:23:07.328Z,12.67
2018-08-30T04:24:42.770Z,12.00
2018-08-30T04:26:18.408Z,12.33
2018-08-30T04:27:53.827Z,12.57
2018-08-30T04:29:29.285Z,12.37
2018-08-30T04:31:05.058Z,14.53
2018-08-30T04:32:40.636Z,12.10
2018-08-30T04:34:16.045Z,11.40
2018-08-30T04:35:51.477Z,11.13
2018-08-30T04:37:26.923Z,11.20
2018-08-30T04:39:03.944Z,10.00
2018-08-30T04:40:39.382Z,10.27
2018-08-30T04:42:14.813Z,11.53
2018-08-30T04:43:50.210Z,13.33
2018-08-30T04:45:25.635Z,11.73
2018-08-30T04:47:01.643Z,11.77
2018-08-30T04:48:37.687Z,11.73
2018-08-30T04:50:14.623Z,10.67
2018-08-30T04:51:50.168Z,10.57
2018-08-30T04:53:25.712Z,11.50
2018-08-30T04:55:01.836Z,10.20
2018-08-30T04:56:38.138Z,12.23
2018-08-30T04:58:14.067Z,14.77
2018-08-30T04:59:50.478Z,10.60
2018-08-30T05:01:25.995Z,10.47
2018-08-30T05:03:01.420Z,10.60
2018-08-30T05:04:36.845Z,10.10
2018-08-30T05:06:12.568Z,10.13
2018-08-30T05:07:48.026Z,10.33
2018-08-30T05:09:23.459Z,9.77
2018-08-30T05:10:58.956Z,10.33
2018-08-30T05:12:34.405Z,9.97
2018-08-30T05:14:10.307Z,9.97
2018-08-30T05:15:47.750Z,10.60
2018-08-30T05:17:23.191Z,10.07
2018-08-30T05:18:59.109Z,11.50
2018-08-30T05:20:34.520Z,10.60
2018-08-30T05:22:10.325Z,11.27
2018-08-30T05:23:48.394Z,10.53
2018-08-30T05:25:23.808Z,11.07
2018-08-30T05:26:59.207Z,10.10
2018-08-30T05:28:37.235Z,11.47
2018-08-30T05:30:13.907Z,12.37
2018-08-30T05:31:49.498Z,12.20
2018-08-30T05:33:25.068Z,12.07
2018-08-30T05:35:02.416Z,12.27
2018-08-30T05:36:37.832Z,11.53
2018-08-30T05:38:13.232Z,13.37
2018-08-30T05:39:49.033Z,11.93
2018-08-30T05:41:24.512Z,12.50
2018-08-30T05:42:59.892Z,14.10
2018-08-30T05:44:35.415Z,11.87
2018-08-30T05:46:12.554Z,11.23
2018-08-30T05:47:47.986Z,11.53
2018-08-30T05:49:23.418Z,11.60
2018-08-30T05:50:58.918Z,10.97
2018-08-30T05:52:35.997Z,11.60
2018-08-30T05:54:11.483Z,10.93
2018-08-30T05:55:47.560Z,10.33
2018-08-30T05:57:23.044Z,11.10
2018-08-30T05:58:58.491Z,13.20
2018-08-30T06:00:33.957Z,12.60
2018-08-30T06:02:11.071Z,10.67
2018-08-30T06:03:47.706Z,11.70
2018-08-30T06:05:23.810Z,11.07
2018-08-30T06:07:01.191Z,11.13
2018-08-30T06:08:50.150Z,11.27
2018-08-30T06:10:31.515Z,10.80
2018-08-30T06:12:06.996Z,10.50
2018-08-30T06:13:42.421Z,11.07
2018-08-30T06:15:17.830Z,10.87
2018-08-30T06:16:53.634Z,11.27
2018-08-30T06:18:30.476Z,10.70
2018-08-30T06:20:06.203Z,10.60
2018-08-30T06:21:42.127Z,11.80
2018-08-30T06:23:17.842Z,12.23
2018-08-30T06:24:53.241Z,10.37
2018-08-30T06:26:29.008Z,11.27
2018-08-30T06:28:05.381Z,10.37
2018-08-30T06:29:41.254Z,10.90
2018-08-30T06:31:17.951Z,10.80
2018-08-30T06:32:53.606Z,10.53
2018-08-30T06:34:28.952Z,11.20
2018-08-30T06:36:04.457Z,10.83
2018-08-30T06:37:40.133Z,9.80
2018-08-30T06:39:15.634Z,10.30
2018-08-30T06:40:51.482Z,10.30
2018-08-30T06:42:28.668Z,10.47
2018-08-30T06:44:04.133Z,10.40
2018-08-30T06:45:40.130Z,10.83
2018-08-30T06:47:20.196Z,10.67
2018-08-30T06:48:56.599Z,11.00
2018-08-30T06:52:12.360Z,10.27
2018-08-30T06:53:49.340Z,12.10
2018-08-30T06:55:24.874Z,11.50
2018-08-30T06:57:04.487Z,9.90
2018-08-30T06:58:40.063Z,10.73
2018-08-30T07:00:16.693Z,12.40
2018-08-30T07:01:52.201Z,10.93
2018-08-30T07:03:27.656Z,11.20
2018-08-30T07:05:03.372Z,10.73
2018-08-30T07:06:39.761Z,11.93
2018-08-30T07:08:15.385Z,10.97
2018-08-30T07:09:51.463Z,14.23
2018-08-30T07:11:29.348Z,13.27
2018-08-30T07:13:04.824Z,11.77
2018-08-30T07:14:41.267Z,11.83
2018-08-30T07:16:16.723Z,12.90
2018-08-30T07:17:52.141Z,13.77
2018-08-30T07:19:27.567Z,13.23
2018-08-30T07:21:03.025Z,12.00
2018-08-30T07:22:38.549Z,13.40
2018-08-30T07:24:15.687Z,14.60
2018-08-30T07:25:51.104Z,12.33
2018-08-30T07:27:26.566Z,16.93
2018-08-30T07:29:02.009Z,14.57
2018-08-30T07:30:37.444Z,13.83
2018-08-30T07:32:12.876Z,13.13
2018-08-30T07:33:48.326Z,14.40
2018-08-30T07:35:23.769Z,15.00
2018-08-30T07:36:59.174Z,14.77
2018-08-30T07:38:34.649Z,17.50
2018-08-30T07:40:10.072Z,17.90
2018-08-30T07:41:46.917Z,16.93
2018-08-30T07:43:22.463Z,16.83
2018-08-30T07:44:57.901Z,15.20
2018-08-30T07:46:33.318Z,17.13
2018-08-30T07:48:08.782Z,14.93
2018-08-30T07:49:45.184Z,15.77
2018-08-30T07:51:21.669Z,17.63
2018-08-30T07:52:57.110Z,15.43
2018-08-30T07:54:32.688Z,16.93
2018-08-30T07:56:08.181Z,16.33
2018-08-30T07:57:43.720Z,18.40
2018-08-30T07:59:19.291Z,19.27
2018-08-30T08:00:54.756Z,17.83
2018-08-30T08:02:32.835Z,18.30
2018-08-30T08:04:09.458Z,17.57
2018-08-30T08:05:45.397Z,16.57
2018-08-30T08:07:21.015Z,15.60
2018-08-30T08:08:56.373Z,15.53
2018-08-30T08:10:31.830Z,16.93
2018-08-30T08:12:07.477Z,17.23
2018-08-30T08:13:42.827Z,16.40
2018-08-30T08:15:18.238Z,15.47
2018-08-30T08:16:53.682Z,14.90
2018-08-30T08:18:29.170Z,13.37
2018-08-30T08:20:04.599Z,14.77
2018-08-30T08:21:40.986Z,13.73
2018-08-30T08:23:16.412Z,13.33
2018-08-30T08:24:51.869Z,12.33
2018-08-30T08:26:27.273Z,11.97
2018-08-30T08:28:02.758Z,12.67
2018-08-30T08:29:38.186Z,11.47
2018-08-30T08:31:14.251Z,11.33
2018-08-30T08:32:55.059Z,13.27
2018-08-30T08:34:30.938Z,12.50
2018-08-30T08:36:06.352Z,9.80
2018-08-30T08:37:41.755Z,10.10
2018-08-30T08:39:17.218Z,10.17
2018-08-30T08:40:52.688Z,8.57
2018-08-30T08:42:28.130Z,10.00
2018-08-30T08:44:03.621Z,9.80
2018-08-30T08:45:39.052Z,8.40
2018-08-30T08:47:14.824Z,8.87
2018-08-30T08:48:50.299Z,7.30
2018-08-30T08:50:25.763Z,7.83
2018-08-30T08:52:01.612Z,7.47
2018-08-30T08:53:37.056Z,6.13
2018-08-30T08:55:12.638Z,5.50
2018-08-30T08:56:48.233Z,4.70
2018-08-30T08:58:23.660Z,4.80
2018-08-30T08:59:59.158Z,3.77
2018-08-30T09:01:34.935Z,3.50
2018-08-30T09:03:10.406Z,2.83
2018-08-30T09:04:45.834Z,2.30
2018-08-30T09:06:21.333Z,2.17
2018-08-30T09:07:58.338Z,1.90
2018-08-30T09:09:33.724Z,2.50
2018-08-30T09:11:09.412Z,1.60
2018-08-30T09:12:44.878Z,1.70
2018-08-30T09:14:20.575Z,1.50
2018-08-30T09:15:56.617Z,1.50
2018-08-30T09:17:32.100Z,1.17
2018-08-30T09:19:08.112Z,1.50
2018-08-30T09:20:43.554Z,1.43
2018-08-30T09:22:20.515Z,1.30
2018-08-30T09:23:56.374Z,1.13
2018-08-30T09:25:31.831Z,1.43
2018-08-30T09:27:07.777Z,1.33
2018-08-30T09:28:43.736Z,1.50
2018-08-30T09:30:19.454Z,1.47
2018-08-30T09:31:54.925Z,1.63
2018-08-30T09:33:32.487Z,1.33
2018-08-30T09:35:08.058Z,2.43
2018-08-30T09:36:43.578Z,1.43
2018-08-30T09:38:19.934Z,1.57
2018-08-30T09:39:55.399Z,1.87
2018-08-30T09:41:31.493Z,3.03
2018-08-30T09:43:06.973Z,1.70
2018-08-30T09:44:42.462Z,1.70
2018-08-30T09:46:19.649Z,1.37
2018-08-30T09:47:55.087Z,1.73
2018-08-30T09:49:30.636Z,1.20
2018-08-30T09:51:06.160Z,1.60
2018-08-30T09:52:42.337Z,3.00
2018-08-30T09:54:22.556Z,1.70
2018-08-30T09:55:58.339Z,2.03
2018-08-30T09:57:33.830Z,1.57
2018-08-30T09:59:09.705Z,1.33
2018-08-30T10:00:51.338Z,1.70
2018-08-30T10:02:32.234Z,2.47
2018-08-30T10:04:08.178Z,1.50
2018-08-30T10:05:43.666Z,1.43
2018-08-30T10:07:19.108Z,1.60
2018-08-30T10:08:54.599Z,2.33
2018-08-30T10:10:30.036Z,1.13
2018-08-30T10:12:05.575Z,1.57
2018-08-30T10:13:41.043Z,1.57
2018-08-30T10:15:16.502Z,1.20
2018-08-30T10:16:52.415Z,1.40
2018-08-30T10:18:28.798Z,1.30
2018-08-30T10:20:04.284Z,1.40
2018-08-30T10:21:39.794Z,1.57
2018-08-30T10:23:15.277Z,1.00
2018-08-30T10:24:50.751Z,0.90
2018-08-30T10:26:26.227Z,1.33
2018-08-30T10:28:02.083Z,0.70
2018-08-30T10:29:38.252Z,0.93
2018-08-30T10:31:13.701Z,1.17
2018-08-30T10:32:49.711Z,1.83
2018-08-30T10:34:30.723Z,1.10
2018-08-30T10:36:06.859Z,1.10
2018-08-30T10:37:42.325Z,0.97
2018-08-30T10:39:18.279Z,1.13
2018-08-30T10:40:53.973Z,1.17
2018-08-30T10:42:30.417Z,1.20
2018-08-30T10:44:06.358Z,0.70
2018-08-30T10:45:41.811Z,1.63
2018-08-30T10:47:17.665Z,0.80
2018-08-30T10:48:53.925Z,3.83
2018-08-30T10:50:30.402Z,0.80
2018-08-30T10:52:05.910Z,1.03
2018-08-30T10:53:42.111Z,0.90
2018-08-30T10:57:02.161Z,0.80
2018-08-30T10:58:39.642Z,1.00
2018-08-30T11:00:24.898Z,1.20
2018-08-30T11:02:12.339Z,0.93
2018-08-30T11:03:49.920Z,1.60
2018-08-30T11:05:25.462Z,0.90
2018-08-30T11:07:01.031Z,1.33
2018-08-30T11:08:37.437Z,0.93
2018-08-30T11:10:12.918Z,0.93
2018-08-30T11:11:48.438Z,0.90
2018-08-30T11:13:24.298Z,0.90
2018-08-30T11:14:59.750Z,0.80
2018-08-30T11:16:35.224Z,0.87
2018-08-30T11:18:10.719Z,1.57
2018-08-30T11:19:46.146Z,0.80
2018-08-30T11:21:21.571Z,1.13
2018-08-30T11:22:57.424Z,2.27
2018-08-30T11:24:33.955Z,1.67
2018-08-30T11:26:09.629Z,0.90
2018-08-30T11:27:45.476Z,1.40
2018-08-30T11:29:21.621Z,1.53
2018-08-30T11:30:57.099Z,1.03
2018-08-30T11:32:32.555Z,1.27
2018-08-30T11:34:08.010Z,1.30
2018-08-30T11:35:43.401Z,2.60
2018-08-30T11:37:19.420Z,1.40
2018-08-30T11:38:58.528Z,1.30
2018-08-30T11:40:36.851Z,1.20
2018-08-30T11:42:12.292Z,1.40
2018-08-30T11:43:48.027Z,1.13
2018-08-30T11:45:23.574Z,1.00
2018-08-30T11:46:59.081Z,1.40
2018-08-30T11:48:35.568Z,1.60
2018-08-30T11:50:11.200Z,1.30
2018-08-30T11:51:53.928Z,2.10
2018-08-30T11:53:30.113Z,1.60
2018-08-30T11:55:05.839Z,2.47
2018-08-30T11:56:44.223Z,3.20
2018-08-30T11:58:20.673Z,3.60
2018-08-30T11:59:59.183Z,3.63
2018-08-30T12:01:37.586Z,3.70
2018-08-30T12:03:17.752Z,3.40
2018-08-30T12:04:53.508Z,3.87
2018-08-30T12:06:30.811Z,4.47
2018-08-30T12:08:06.648Z,3.77
2018-08-30T12:09:44.489Z,4.20
2018-08-30T12:11:20.532Z,4.10
2018-08-30T12:12:57.154Z,4.30
2018-08-30T12:14:32.898Z,3.73
2018-08-30T12:16:08.658Z,3.90
2018-08-30T12:17:44.273Z,4.07
2018-08-30T12:19:19.759Z,3.90
2018-08-30T12:20:55.280Z,3.20
2018-08-30T12:22:31.389Z,3.33
2018-08-30T12:24:06.823Z,3.17
2018-08-30T12:25:42.386Z,3.30
2018-08-30T12:27:17.792Z,3.37
2018-08-30T12:28:53.317Z,3.33
2018-08-30T12:30:28.872Z,2.83
2018-08-30T12:32:04.384Z,2.90
2018-08-30T12:33:39.922Z,2.90
2018-08-30T12:35:15.558Z,5.27
2018-08-30T12:36:50.900Z,3.07
2018-08-30T12:38:26.587Z,3.30
2018-08-30T12:40:03.751Z,3.10
2018-08-30T12:41:39.165Z,3.60
2018-08-30T12:43:14.691Z,4.20
2018-08-30T12:44:50.024Z,4.50
2018-08-30T12:46:25.452Z,4.20
2018-08-30T12:48:01.234Z,5.87
2018-08-30T12:49:36.616Z,5.27
2018-08-30T12:51:12.273Z,4.90
2018-08-30T12:52:47.719Z,5.70
2018-08-30T12:54:23.479Z,5.77
2018-08-30T12:55:58.880Z,6.47
2018-08-30T12:57:34.803Z,5.27
2018-08-30T12:59:15.469Z,5.37
2018-08-30T13:00:51.094Z,5.80
2018-08-30T13:02:26.579Z,5.67
2018-08-30T13:04:02.536Z,6.20
2018-08-30T13:05:39.222Z,7.03
2018-08-30T13:07:16.016Z,6.00
2018-08-30T13:08:51.525Z,5.60
2018-08-30T13:10:26.927Z,5.80
2018-08-30T13:12:02.632Z,5.07
2018-08-30T13:13:39.945Z,6.80
2018-08-30T13:15:16.391Z,6.00
2018-08-30T13:16:51.625Z,6.33
2018-08-30T13:18:27.203Z,6.70
2018-08-30T13:20:03.141Z,6.63
2018-08-30T13:21:38.827Z,5.80
2018-08-30T13:23:14.180Z,6.30
2018-08-30T13:24:49.838Z,6.87
2018-08-30T13:26:25.074Z,7.33
2018-08-30T13:28:00.637Z,6.73
2018-08-30T13:29:37.006Z,7.00
2018-08-30T13:31:13.153Z,6.87
2018-08-30T13:32:49.110Z,8.17
2018-08-30T13:34:24.936Z,7.57
2018-08-30T13:36:00.316Z,8.53
2018-08-30T13:37:35.914Z,8.20
2018-08-30T13:39:12.306Z,7.43
2018-08-30T13:40:47.789Z,7.17
2018-08-30T13:42:23.628Z,7.27
2018-08-30T13:43:59.057Z,7.20
2018-08-30T13:45:35.054Z,8.07
2018-08-30T13:47:10.485Z,7.43
2018-08-30T13:48:46.075Z,7.53
2018-08-30T13:50:21.598Z,7.80
2018-08-30T13:51:57.218Z,7.57
2018-08-30T13:53:33.575Z,7.57
2018-08-30T13:55:09.131Z,8.37
2018-08-30T13:56:44.751Z,9.37
2018-08-30T13:58:20.451Z,8.73
2018-08-30T13:59:56.027Z,8.40
2018-08-30T14:01:31.892Z,8.30
2018-08-30T14:03:06.662Z,8.50
2018-08-30T14:04:42.104Z,8.00
2018-08-30T14:06:17.616Z,9.30
2018-08-30T14:07:53.185Z,12.33
2018-08-30T14:09:28.789Z,9.27
2018-08-30T14:11:04.290Z,8.30
2018-08-30T14:12:40.642Z,8.00
2018-08-30T14:14:15.928Z,8.50
2018-08-30T14:15:51.741Z,7.87
2018-08-30T14:17:27.353Z,9.20
2018-08-30T14:19:03.044Z,8.63
2018-08-30T14:20:38.333Z,8.10
2018-08-30T14:22:17.566Z,7.50
2018-08-30T14:23:52.984Z,7.43
2018-08-30T14:25:28.354Z,8.47
2018-08-30T14:27:03.876Z,7.67
2018-08-30T14:28:39.303Z,6.57
2018-08-30T14:30:16.666Z,6.87
2018-08-30T14:31:54.536Z,7.03
2018-08-30T14:33:31.617Z,6.90
2018-08-30T14:35:08.024Z,8.70
2018-08-30T14:36:43.461Z,7.10
2018-08-30T14:38:19.126Z,6.93
2018-08-30T14:39:56.732Z,7.43
2018-08-30T14:41:32.514Z,6.93
2018-08-30T14:43:08.246Z,6.40
2018-08-30T14:44:44.668Z,7.10
2018-08-30T14:46:20.135Z,7.03
2018-08-30T14:47:56.349Z,7.10
2018-08-30T14:49:32.408Z,6.33
2018-08-30T14:51:08.637Z,7.33
2018-08-30T14:52:44.143Z,6.27
2018-08-30T14:54:20.882Z,6.40
2018-08-30T14:55:56.713Z,6.10
2018-08-30T14:57:39.158Z,6.63
2018-08-30T14:59:14.719Z,6.07
2018-08-30T15:00:51.514Z,6.50
2018-08-30T15:02:26.907Z,6.80
2018-08-30T15:04:02.410Z,5.87
2018-08-30T15:05:38.050Z,6.00
2018-08-30T15:07:13.354Z,6.50
2018-08-30T15:08:48.825Z,6.57
2018-08-30T15:10:25.056Z,6.50
2018-08-30T15:12:01.199Z,5.67
2018-08-30T15:13:36.733Z,6.03
2018-08-30T15:15:12.273Z,5.87
2018-08-30T15:16:47.725Z,5.97
2018-08-30T15:18:23.424Z,6.43
2018-08-30T15:20:01.318Z,8.20
2018-08-30T15:21:36.691Z,6.33
2018-08-30T15:23:13.313Z,5.90
2018-08-30T15:24:48.493Z,6.33
2018-08-30T15:26:23.944Z,5.83
2018-08-30T15:28:00.207Z,6.70
2018-08-30T15:29:35.888Z,5.73
2018-08-30T15:31:11.707Z,5.20
2018-08-30T15:32:47.715Z,6.00
2018-08-30T15:34:23.841Z,7.27
2018-08-30T15:35:59.345Z,5.83
2018-08-30T15:37:34.938Z,7.13
2018-08-30T15:39:11.218Z,5.27
2018-08-30T15:40:46.679Z,8.50
2018-08-30T15:42:22.159Z,5.37
2018-08-30T15:43:57.538Z,5.70
2018-08-30T15:45:33.022Z,5.83
2018-08-30T15:47:08.489Z,5.63
2018-08-30T15:48:46.066Z,6.53
2018-08-30T15:50:21.547Z,5.40
2018-08-30T15:51:57.010Z,6.83
2018-08-30T15:53:32.473Z,5.53
2018-08-30T15:55:10.894Z,5.60
2018-08-30T15:56:47.729Z,5.73
2018-08-30T15:58:23.587Z,6.27
2018-08-30T15:59:59.087Z,5.87
2018-08-30T16:01:34.566Z,5.17
2018-08-30T16:03:10.100Z,5.67
2018-08-30T16:04:45.804Z,5.67
2018-08-30T16:06:21.298Z,5.80
2018-08-30T16:07:56.748Z,5.73
2018-08-30T16:09:32.720Z,5.63
2018-08-30T16:11:08.253Z,5.17
2018-08-30T16:12:44.934Z,5.07
2018-08-30T16:14:20.482Z,5.60
2018-08-30T16:15:56.048Z,4.90
2018-08-30T16:17:31.520Z,5.20
2018-08-30T16:19:06.992Z,5.40
2018-08-30T16:20:42.511Z,5.43
2018-08-30T16:22:18.612Z,5.63
2018-08-30T16:23:54.011Z,6.17
2018-08-30T16:25:29.516Z,5.80
2018-08-30T16:27:06.134Z,5.37
2018-08-30T16:28:44.143Z,5.30
2018-08-30T16:30:19.694Z,5.60
2018-08-30T16:31:55.397Z,4.73
2018-08-30T16:33:31.458Z,5.77
2018-08-30T16:35:08.151Z,5.43
2018-08-30T16:36:43.695Z,5.73
2018-08-30T16:38:20.049Z,5.87
2018-08-30T16:39:55.557Z,5.57
2018-08-30T16:41:30.980Z,5.13
2018-08-30T16:43:07.861Z,5.27
2018-08-30T16:44:43.310Z,5.30
2018-08-30T16:46:18.804Z,4.87
2018-08-30T16:47:54.536Z,5.37
2018-08-30T16:49:30.009Z,5.70
2018-08-30T16:51:05.466Z,5.27
2018-08-30T16:52:41.871Z,5.23
2018-08-30T16:54:18.656Z,7.90
2018-08-30T16:55:54.910Z,5.30
2018-08-30T16:57:31.755Z,5.53
2018-08-30T16:59:07.308Z,4.97
2018-08-30T17:00:45.477Z,6.20
2018-08-30T17:02:20.954Z,6.17
2018-08-30T17:03:56.394Z,5.63
2018-08-30T17:05:32.743Z,5.20
2018-08-30T17:07:12.783Z,5.27
2018-08-30T17:08:49.152Z,5.17
2018-08-30T17:10:24.525Z,5.67
2018-08-30T17:12:01.202Z,5.53
2018-08-30T17:13:38.100Z,6.00
2018-08-30T17:15:13.954Z,4.87
2018-08-30T17:16:49.438Z,5.50
2018-08-30T17:18:25.886Z,5.40
2018-08-30T17:20:01.355Z,5.63
2018-08-30T17:21:36.860Z,5.93
2018-08-30T17:23:27.184Z,5.20
2018-08-30T17:25:02.600Z,5.40
2018-08-30T17:26:38.179Z,5.53
2018-08-30T17:28:13.871Z,6.50
2018-08-30T17:29:50.125Z,5.50
2018-08-30T17:31:26.271Z,12.27
2018-08-30T17:33:01.862Z,13.23
2018-08-30T17:34:38.731Z,18.03
2018-08-30T17:36:14.394Z,21.80
2018-08-30T17:37:50.021Z,22.30
2018-08-30T17:39:25.442Z,9.23
2018-08-30T17:41:00.953Z,6.53
2018-08-30T17:42:36.458Z,7.83
2018-08-30T17:44:11.910Z,6.87
2018-08-30T17:45:48.311Z,6.73
2018-08-30T17:47:23.767Z,5.70
2018-08-30T17:48:59.222Z,6.23
2018-08-30T17:50:35.274Z,6.13
2018-08-30T17:52:13.655Z,5.87
2018-08-30T17:53:50.963Z,5.87
2018-08-30T17:55:27.536Z,5.57
2018-08-30T17:57:03.022Z,5.73
2018-08-30T17:58:38.458Z,5.73
2018-08-30T18:00:14.430Z,5.50
2018-08-30T18:01:50.819Z,6.97
2018-08-30T18:03:26.219Z,6.47
2018-08-30T18:05:01.791Z,6.00
2018-08-30T18:06:38.030Z,6.03
2018-08-30T18:08:13.488Z,6.07
2018-08-30T18:09:48.888Z,6.77
2018-08-30T18:11:24.408Z,6.50
2018-08-30T18:12:59.866Z,5.93
2018-08-30T18:14:35.307Z,5.33
2018-08-30T18:16:12.032Z,6.20
2018-08-30T18:17:47.494Z,6.00
2018-08-30T18:19:23.305Z,7.27
2018-08-30T18:20:58.747Z,6.43
2018-08-30T18:22:34.804Z,5.07
2018-08-30T18:24:10.265Z,7.77
2018-08-30T18:25:46.516Z,6.03
2018-08-30T18:27:21.997Z,8.07
2018-08-30T18:28:57.644Z,10.57
2018-08-30T18:30:33.212Z,10.10
2018-08-30T18:32:08.714Z,9.80
2018-08-30T18:33:44.177Z,11.70
2018-08-30T18:35:19.610Z,9.10
2018-08-30T18:36:55.092Z,7.43
2018-08-30T18:38:30.601Z,8.10
2018-08-30T18:40:08.011Z,6.47
2018-08-30T18:41:43.468Z,5.77
2018-08-30T18:43:19.221Z,6.13
2018-08-30T18:44:54.688Z,6.67
2018-08-30T18:46:30.116Z,6.73
2018-08-30T18:48:05.587Z,6.77
2018-08-30T18:49:41.602Z,6.60
2018-08-30T18:51:17.259Z,5.70
2018-08-30T18:52:52.742Z,6.03
2018-08-30T18:54:28.302Z,5.87
2018-08-30T18:56:03.958Z,5.47
2018-08-30T18:57:39.347Z,5.37
2018-08-30T18:59:15.357Z,6.10
2018-08-30T19:00:52.160Z,5.73
2018-08-30T19:02:29.314Z,6.33
2018-08-30T19:04:04.777Z,5.30
2018-08-30T19:05:40.417Z,5.83
2018-08-30T19:07:15.843Z,5.40
2018-08-30T19:08:51.816Z,5.20
2018-08-30T19:10:28.276Z,6.23
2018-08-30T19:12:03.761Z,5.93
2018-08-30T19:13:39.438Z,5.77
2018-08-30T19:15:21.223Z,5.97
2018-08-30T19:17:04.173Z,6.07
2018-08-30T19:19:14.641Z,6.13
2018-08-30T19:20:50.084Z,6.23
2018-08-30T19:22:25.540Z,6.17
2018-08-30T19:24:00.950Z,6.13
2018-08-30T19:25:36.452Z,7.00
2018-08-30T19:27:11.925Z,6.17
2018-08-30T19:28:47.406Z,6.83
2018-08-30T19:30:28.580Z,6.67
2018-08-30T19:32:04.176Z,5.77
2018-08-30T19:33:39.667Z,5.80
2018-08-30T19:35:20.424Z,6.07
2018-08-30T19:36:55.883Z,5.73
2018-08-30T19:38:31.339Z,6.70
2018-08-30T19:40:10.303Z,6.30
2018-08-30T19:41:45.809Z,5.43
2018-08-30T19:43:21.256Z,6.03
2018-08-30T19:44:56.737Z,5.90
2018-08-30T19:46:32.221Z,6.23
2018-08-30T19:48:07.712Z,5.57
2018-08-30T19:49:46.199Z,5.53
2018-08-30T19:51:21.647Z,6.17
2018-08-30T19:52:57.139Z,5.93
2018-08-30T19:54:32.966Z,6.23
2018-08-30T19:56:09.684Z,6.00
2018-08-30T19:57:45.179Z,5.33
2018-08-30T19:59:20.642Z,6.07
2018-08-30T20:00:56.095Z,6.00
2018-08-30T20:02:32.106Z,5.73
2018-08-30T20:04:07.786Z,5.70
2018-08-30T20:05:44.637Z,5.97
2018-08-30T20:07:20.846Z,5.67
2018-08-30T20:08:56.296Z,5.37
2018-08-30T20:10:31.848Z,6.20
2018-08-30T20:12:07.284Z,5.93
2018-08-30T20:13:43.548Z,5.27
2018-08-30T20:15:19.595Z,6.60
2018-08-30T20:16:57.056Z,6.27
2018-08-30T20:18:32.508Z,6.17
2018-08-30T20:20:09.238Z,5.67
2018-08-30T20:21:44.636Z,5.37
2018-08-30T20:23:21.225Z,6.03
2018-08-30T20:24:56.858Z,5.50
2018-08-30T20:26:32.335Z,5.53
2018-08-30T20:28:08.070Z,5.20
2018-08-30T20:29:43.803Z,7.50
2018-08-30T20:31:19.322Z,5.80
2018-08-30T20:32:54.752Z,6.07
2018-08-30T20:34:30.220Z,5.80
2018-08-30T20:36:05.757Z,5.60
2018-08-30T20:37:41.241Z,5.57
2018-08-30T20:39:16.797Z,6.07
2018-08-30T20:40:52.367Z,6.20
2018-08-30T20:42:27.790Z,6.87
2018-08-30T20:44:04.594Z,6.07
2018-08-30T20:45:40.091Z,6.10
2018-08-30T20:47:15.517Z,5.80
2018-08-30T20:48:51.369Z,5.53
2018-08-30T20:50:26.834Z,5.60
2018-08-30T20:52:02.336Z,5.90
2018-08-30T20:53:38.358Z,8.20
2018-08-30T20:55:13.769Z,6.30
2018-08-30T20:56:49.197Z,5.70
2018-08-30T20:58:24.634Z,5.67
2018-08-30T21:00:00.053Z,6.10
2018-08-30T21:01:35.518Z,5.73
2018-08-30T21:03:12.274Z,6.30
2018-08-30T21:04:48.605Z,5.80